createdAt,value
2019-01-04T00:04:22.137Z,19.37
2019-01-04T00:09:17.821Z,16.10
2019-01-04T00:14:13.539Z,19.47
2019-01-04T00:19:09.269Z,17.03
2019-01-04T00:24:04.975Z,22.07
2019-01-04T00:29:00.898Z,15.60
2019-01-04T00:33:56.591Z,21.00
2019-01-04T00:38:52.340Z,16.90
2019-01-04T00:43:48.038Z,19.10
2019-01-04T00:48:43.739Z,19.57
2019-01-04T00:53:39.470Z,21.40
2019-01-04T00:58:40.085Z,19.93
2019-01-04T01:03:49.547Z,17.83
2019-01-04T01:08:50.158Z,20.13
2019-01-04T01:13:50.878Z,21.83
2019-01-04T01:19:04.920Z,24.70
2019-01-04T01:24:05.803Z,21.13
2019-01-04T01:29:09.218Z,20.30
2019-01-04T01:34:09.728Z,21.17
2019-01-04T01:39:07.572Z,20.13
2019-01-04T01:44:05.193Z,20.97
2019-01-04T01:49:05.579Z,23.83
2019-01-04T01:54:01.562Z,23.97
2019-01-04T01:58:57.342Z,20.33
2019-01-04T02:03:53.129Z,22.47
2019-01-04T02:08:48.863Z,21.97
2019-01-04T02:13:45.989Z,22.70
2019-01-04T02:18:41.705Z,21.93
2019-01-04T02:23:37.379Z,22.67
2019-01-04T02:28:33.129Z,27.37
2019-01-04T02:33:28.883Z,24.60
2019-01-04T02:38:24.589Z,24.77
2019-01-04T02:43:20.396Z,26.27
2019-01-04T02:48:16.121Z,28.53
2019-01-04T02:53:11.822Z,25.03
2019-01-04T02:58:07.610Z,28.90
2019-01-04T03:03:03.465Z,27.40
2019-01-04T03:07:59.437Z,29.63
2019-01-04T03:12:55.143Z,25.03
2019-01-04T03:17:51.004Z,24.93
2019-01-04T03:22:46.904Z,22.93
2019-01-04T03:27:42.701Z,27.03
2019-01-04T03:32:38.423Z,24.37
2019-01-04T03:37:34.221Z,26.90
2019-01-04T03:42:30.254Z,25.37
2019-01-04T03:47:26.073Z,26.17
2019-01-04T03:52:21.801Z,29.17
2019-01-04T03:57:17.536Z,22.23
2019-01-04T04:02:13.516Z,26.33
2019-01-04T04:07:09.215Z,26.37
2019-01-04T04:12:04.929Z,29.03
2019-01-04T04:17:00.670Z,25.47
2019-01-04T04:21:56.370Z,24.37
2019-01-04T04:26:52.125Z,26.33
2019-01-04T04:31:47.867Z,21.77
2019-01-04T04:36:43.636Z,25.63
2019-01-04T04:41:39.409Z,22.93
2019-01-04T04:46:35.164Z,23.50
2019-01-04T04:51:30.867Z,27.50
2019-01-04T04:56:26.627Z,34.53
2019-01-04T05:01:22.296Z,30.23
2019-01-04T05:06:18.022Z,26.17
2019-01-04T05:11:13.744Z,21.53
2019-01-04T05:16:09.449Z,27.13
2019-01-04T05:21:05.243Z,27.03
2019-01-04T05:26:00.959Z,27.73
2019-01-04T05:30:56.754Z,22.73
2019-01-04T05:35:52.573Z,22.47
2019-01-04T05:41:26.510Z,28.87
2019-01-04T05:46:22.303Z,29.07
2019-01-04T05:51:18.259Z,26.10
2019-01-04T05:56:13.945Z,23.77
2019-01-04T06:01:09.651Z,21.87
2019-01-04T06:06:05.389Z,22.73
2019-01-04T06:11:01.108Z,23.00
2019-01-04T06:15:56.778Z,26.30
2019-01-04T06:20:52.770Z,29.00
2019-01-04T06:25:48.461Z,26.80
2019-01-04T06:30:44.195Z,29.40
2019-01-04T06:35:39.930Z,51.03
2019-01-04T06:40:35.697Z,52.27
2019-01-04T06:45:31.390Z,47.23
2019-01-04T06:50:27.095Z,29.03
2019-01-04T06:55:41.321Z,27.20
2019-01-04T07:00:37.169Z,25.73
2019-01-04T07:05:33.129Z,37.70
2019-01-04T07:10:28.790Z,56.00
2019-01-04T07:15:24.537Z,41.83
2019-01-04T07:20:20.299Z,24.37
2019-01-04T07:25:16.032Z,24.97
2019-01-04T07:30:11.865Z,29.40
2019-01-04T07:35:07.579Z,23.37
2019-01-04T07:40:05.171Z,22.13
2019-01-04T07:45:00.879Z,22.47
2019-01-04T07:49:56.586Z,21.97
2019-01-04T07:54:52.295Z,22.40
2019-01-04T07:59:48.045Z,24.33
2019-01-04T08:04:43.722Z,22.50
2019-01-04T08:09:39.422Z,21.30
2019-01-04T08:14:35.129Z,20.97
2019-01-04T08:19:30.859Z,25.33
2019-01-04T08:24:26.563Z,21.53
2019-01-04T08:29:22.286Z,21.87
2019-01-04T08:34:17.994Z,19.13
2019-01-04T08:39:13.978Z,18.10
2019-01-04T08:44:09.703Z,21.20
2019-01-04T08:49:05.404Z,19.27
2019-01-04T08:54:01.177Z,23.73
2019-01-04T08:58:57.005Z,20.30
2019-01-04T09:03:52.816Z,18.90
2019-01-04T09:08:48.486Z,18.87
2019-01-04T09:13:44.204Z,18.10
2019-01-04T09:18:39.912Z,18.67
2019-01-04T09:23:35.733Z,19.90
2019-01-04T09:28:31.591Z,19.87
2019-01-04T09:33:27.303Z,17.40
2019-01-04T09:38:23.023Z,24.83
2019-01-04T09:43:18.749Z,20.93
2019-01-04T09:48:14.476Z,17.40
2019-01-04T09:53:10.166Z,18.03
2019-01-04T09:58:05.879Z,18.20
2019-01-04T10:03:01.794Z,18.23
2019-01-04T10:07:57.498Z,18.13
2019-01-04T10:12:53.214Z,18.37
2019-01-04T10:17:48.919Z,14.90
2019-01-04T10:22:44.649Z,14.47
2019-01-04T10:27:40.619Z,17.27
2019-01-04T10:32:36.369Z,18.20
2019-01-04T10:37:32.080Z,15.67
2019-01-04T10:42:27.797Z,17.97
2019-01-04T10:47:23.527Z,16.60
2019-01-04T10:52:19.204Z,13.80
2019-01-04T10:57:14.936Z,15.10
2019-01-04T11:02:10.639Z,16.23
2019-01-04T11:07:06.367Z,15.43
2019-01-04T11:12:02.066Z,14.73
2019-01-04T11:16:58.370Z,11.87
2019-01-04T11:21:56.101Z,11.90
2019-01-04T11:26:52.021Z,13.43
2019-01-04T11:31:52.387Z,14.23
2019-01-04T11:36:56.009Z,11.53
2019-01-04T11:42:02.839Z,13.07
2019-01-04T11:47:00.415Z,14.27
2019-01-04T11:52:01.057Z,10.90
2019-01-04T11:56:56.843Z,13.63
2019-01-04T12:01:52.591Z,16.87
2019-01-04T12:06:48.310Z,14.10
2019-01-04T12:11:44.011Z,12.73
2019-01-04T12:16:39.711Z,13.53
2019-01-04T12:21:35.441Z,11.80
2019-01-04T12:26:31.121Z,12.30
2019-01-04T12:31:26.867Z,13.70
2019-01-04T12:36:22.561Z,10.97
2019-01-04T12:41:18.313Z,12.07
2019-01-04T12:46:13.974Z,12.50
2019-01-04T12:51:09.690Z,12.50
2019-01-04T12:56:06.273Z,11.27
2019-01-04T13:01:02.334Z,14.30
2019-01-04T13:05:58.249Z,12.00
2019-01-04T13:10:53.969Z,12.83
2019-01-04T13:15:49.932Z,11.03
2019-01-04T13:20:45.603Z,13.80
2019-01-04T13:25:41.329Z,12.90
2019-01-04T13:30:37.085Z,12.83
2019-01-04T13:35:32.780Z,11.60
2019-01-04T13:40:28.503Z,12.53
2019-01-04T13:45:25.215Z,12.17
2019-01-04T13:50:20.927Z,12.93
2019-01-04T13:55:16.872Z,16.97
2019-01-04T14:00:12.821Z,11.77
2019-01-04T14:05:08.545Z,13.87
2019-01-04T14:10:06.146Z,12.43
2019-01-04T14:15:01.963Z,14.07
2019-01-04T14:19:57.671Z,16.10
2019-01-04T14:24:53.397Z,17.00
2019-01-04T14:29:49.108Z,15.80
2019-01-04T14:34:44.840Z,13.93
2019-01-04T14:39:40.639Z,12.40
2019-01-04T14:44:36.330Z,13.77
2019-01-04T14:49:32.261Z,17.47
2019-01-04T14:54:27.951Z,16.67
2019-01-04T14:59:23.911Z,19.67
2019-01-04T15:04:19.617Z,16.90
2019-01-04T15:09:15.295Z,14.23
2019-01-04T15:14:11.039Z,15.57
2019-01-04T15:19:06.815Z,17.77
2019-01-04T15:24:02.543Z,18.63
2019-01-04T15:28:58.229Z,16.63
2019-01-04T15:33:53.965Z,15.93
2019-01-04T15:38:49.661Z,18.37
2019-01-04T15:43:45.635Z,15.60
2019-01-04T15:48:41.349Z,19.60
2019-01-04T15:53:37.339Z,16.17
2019-01-04T15:58:33.043Z,17.77
2019-01-04T16:03:28.786Z,19.03
2019-01-04T16:08:24.553Z,15.37
2019-01-04T16:13:20.245Z,17.50
2019-01-04T16:18:15.971Z,19.30
2019-01-04T16:23:11.735Z,22.70
2019-01-04T16:28:07.480Z,17.40
2019-01-04T16:33:03.240Z,17.63
2019-01-04T16:37:59.203Z,19.17
2019-01-04T16:42:54.910Z,15.67
2019-01-04T16:47:50.605Z,20.30
2019-01-04T16:52:46.531Z,20.87
2019-01-04T16:57:42.256Z,18.37
2019-01-04T17:02:37.944Z,20.20
2019-01-04T17:07:33.675Z,28.93
2019-01-04T17:12:29.395Z,17.00
2019-01-04T17:17:25.282Z,18.97
2019-01-04T17:22:21.048Z,20.50
2019-01-04T17:27:17.227Z,19.57
2019-01-04T17:32:13.198Z,24.97
2019-01-04T17:37:08.973Z,19.67
2019-01-04T17:42:04.685Z,19.30
2019-01-04T17:47:00.469Z,19.93
2019-01-04T17:51:56.195Z,20.90
2019-01-04T17:56:51.869Z,20.33
2019-01-04T18:01:47.579Z,22.27
2019-01-04T18:06:43.315Z,25.33
2019-01-04T18:11:38.987Z,20.70
2019-01-04T18:16:34.725Z,21.53
2019-01-04T18:21:30.514Z,21.83
2019-01-04T18:26:26.223Z,22.00
2019-01-04T18:31:22.001Z,30.37
2019-01-04T18:36:17.836Z,26.50
2019-01-04T18:41:13.611Z,25.37
2019-01-04T18:46:09.301Z,22.67
2019-01-04T18:51:05.033Z,22.03
2019-01-04T18:56:00.707Z,22.93
2019-01-04T19:00:56.401Z,21.97
2019-01-04T19:05:52.115Z,20.80
2019-01-04T19:10:47.877Z,22.37
2019-01-04T19:15:43.571Z,20.90
2019-01-04T19:20:39.272Z,22.40
2019-01-04T19:25:34.986Z,23.60
2019-01-04T19:30:30.681Z,18.93
2019-01-04T19:35:26.397Z,22.80
2019-01-04T19:40:22.123Z,19.63
2019-01-04T19:45:17.792Z,19.87
2019-01-04T19:50:15.058Z,23.73
2019-01-04T19:55:10.787Z,20.93
2019-01-04T20:00:06.750Z,19.93
2019-01-04T20:05:03.051Z,22.30
2019-01-04T20:10:22.125Z,19.77
2019-01-04T20:15:36.841Z,18.77
2019-01-04T20:20:34.564Z,20.73
2019-01-04T20:25:32.273Z,21.80
2019-01-04T20:30:29.911Z,18.50
2019-01-04T20:35:42.647Z,22.17
2019-01-04T20:40:46.351Z,18.63
2019-01-04T20:45:44.034Z,16.13
2019-01-04T20:50:57.873Z,16.47
2019-01-04T20:56:04.474Z,17.70
2019-01-04T21:01:02.103Z,14.83
2019-01-04T21:06:05.602Z,14.37
2019-01-04T21:11:19.777Z,13.73
2019-01-04T21:16:23.476Z,12.83
2019-01-04T21:21:21.058Z,13.03
2019-01-04T21:26:33.975Z,14.43
2019-01-04T21:31:34.513Z,16.93
2019-01-04T21:36:44.035Z,14.23
2019-01-04T21:41:58.161Z,15.43
2019-01-04T21:47:01.643Z,15.40
2019-01-04T21:52:11.361Z,16.80
2019-01-04T21:57:25.555Z,15.53
2019-01-04T22:02:32.139Z,14.00
2019-01-04T22:07:46.303Z,14.53
2019-01-04T22:13:01.901Z,15.53
2019-01-04T22:18:11.527Z,13.87
2019-01-04T22:23:20.930Z,13.60
2019-01-04T22:28:30.510Z,17.70
2019-01-04T22:33:37.068Z,18.57
2019-01-04T22:38:37.535Z,19.13
2019-01-04T22:43:40.917Z,18.03
2019-01-04T22:48:54.979Z,18.63
2019-01-04T22:53:55.441Z,17.83
2019-01-04T22:59:09.343Z,19.60
2019-01-04T23:04:06.959Z,21.27
2019-01-04T23:09:14.825Z,21.40
2019-01-04T23:14:21.175Z,21.43
2019-01-04T23:19:30.737Z,21.57
2019-01-04T23:24:44.754Z,20.60
2019-01-04T23:29:58.722Z,18.53
2019-01-04T23:35:02.265Z,19.37
2019-01-04T23:39:59.882Z,17.90
2019-01-04T23:45:15.238Z,17.63
2019-01-04T23:50:22.033Z,16.60
2019-01-04T23:55:25.282Z,17.23
